CST,Max TemperatureF,Mean TemperatureF,Min TemperatureF,Max Dew PointF,MeanDew PointF,Min DewpointF,Max Humidity, Mean Humidity, Min Humidity, Max Sea Level PressureIn, Mean Sea Level PressureIn, Min Sea Level PressureIn, Max VisibilityMiles, Mean VisibilityMiles, Min VisibilityMiles, Max Wind SpeedMPH, Mean Wind SpeedMPH, Max Gust SpeedMPH,PrecipitationIn, CloudCover, Events, WindDirDegrees
2011-11-1,60,48,37,37,34,32,87,62,42,30.01,29.93,29.86,10,10,10,7,4,,0.00,1,,129
2011-11-2,48,42,35,37,35,32,93,70,62,30.19,30.11,29.97,10,10,7,12,4,18,0.00,6,Rain,342
2011-11-3,51,42,33,32,30,27,87,67,40,30.30,30.23,30.16,10,10,10,10,5,,0.00,0,,337
2011-11-4,53,38,24,34,29,23,100,76,33,30.33,30.27,30.16,10,9,0,10,2,,0.00,0,Fog,144
2011-11-5,57,47,37,41,36,30,81,66,51,30.15,30.00,29.85,10,10,10,14,7,22,0.00,1,,154
2011-11-6,59,52,44,43,38,28,76,61,41,29.99,29.80,29.72,10,10,10,18,10,30,0.00,3,,201
2011-11-7,55,45,35,30,22,14,70,45,21,30.23,30.15,30.05,10,10,10,8,4,,0.00,0,,274
2011-11-8,46,42,37,32,28,25,81,59,50,30.21,30.15,30.10,10,10,7,6,2,,0.00,5,,26
2011-11-9,48,40,33,34,29,21,93,68,39,30.06,29.97,29.91,10,10,5,16,7,25,0.03,4,Rain,338
2011-11-10,35,34,32,28,24,19,87,68,52,30.03,29.99,29.94,10,10,4,22,12,28,0.00,8,Rain-Snow,301
2011-11-11,46,36,26,28,22,18,80,62,34,29.99,29.79,29.66,10,10,10,13,3,22,0.00,1,,167
2011-11-12,55,42,28,34,30,25,93,67,36,29.65,29.55,29.39,10,10,5,10,3,16,0.00,0,,153
2011-11-13,50,46,41,34,32,28,70,60,50,29.43,29.28,29.24,10,10,10,12,4,17,0.00,4,,238
2011-11-14,55,44,32,32,27,18,87,54,28,29.63,29.52,29.45,10,10,10,17,7,28,0.00,1,Rain,246
2011-11-15,51,38,26,32,24,16,93,56,32,29.93,29.70,29.59,10,10,7,16,5,31,0.02,1,Rain,268
2011-11-16,35,30,26,18,12,3,64,47,26,30.14,30.05,29.93,10,10,10,20,11,26,0.00,0,,295
2011-11-17,32,24,17,14,9,3,73,55,32,30.20,30.15,30.06,10,10,10,13,7,20,0.00,0,,288
2011-11-18,44,38,32,28,21,12,80,54,43,29.94,29.76,29.67,10,10,10,14,7,24,0.00,1,,192
2011-11-19,37,32,26,32,28,23,100,88,70,29.89,29.73,29.65,10,9,2,13,3,17,0.03,5,Rain-Snow,328
2011-11-20,28,26,23,23,20,19,86,77,69,30.36,30.29,30.09,10,10,10,15,7,21,0.00,8,,328
2011-11-21,35,30,24,28,25,21,87,80,70,30.34,30.29,30.22,10,10,10,8,1,,0.00,7,,122
2011-11-22,39,36,32,30,29,27,93,82,70,30.23,30.12,30.01,10,8,4,12,5,,0.00,6,,111
2011-11-23,42,37,32,32,32,30,93,83,66,30.18,30.13,30.10,10,6,4,8,2,,0.00,6,,205
2011-11-24,53,45,37,39,35,32,87,73,54,30.10,29.96,29.81,10,7,4,15,6,22,0.00,4,,188
2011-11-25,50,47,44,39,37,34,81,71,54,29.77,29.74,29.72,10,10,7,15,8,21,0.00,5,,197
2011-11-26,46,39,32,45,37,27,93,88,75,29.98,29.79,29.68,10,5,2,23,7,30,0.28,8,Rain,305
2011-11-27,32,32,32,27,23,19,80,70,60,30.20,30.10,29.98,10,10,10,20,12,29,0.00,8,,347
2011-11-28,32,29,26,27,22,19,86,74,64,30.19,30.14,30.07,10,10,10,9,3,,0.00,5,,215
2011-11-29,35,28,21,27,17,9,80,58,33,30.27,30.21,30.16,10,10,5,13,8,21,0.00,0,Snow,341
2011-11-30,44,29,14,21,13,10,93,58,27,30.12,30.01,29.92,10,10,10,9,3,,0.00,0,,191